sensor_id;sensor_type;location;lat;lon;timestamp;temperature;humidity
6375;DHT22;35400;45.472;-122.822;2023-03-24T00:01:07;8.30;99.90
6375;DHT22;35400;45.472;-122.822;2023-03-24T00:03:34;8.20;99.90
6375;DHT22;35400;45.472;-122.822;2023-03-24T00:06:03;8.10;99.90
6375;DHT22;35400;45.472;-122.822;2023-03-24T00:08:32;8.10;99.90
6375;DHT22;35400;45.472;-122.822;2023-03-24T00:11:05;8.00;99.90
6375;DHT22;35400;45.472;-122.822;2023-03-24T00:13:33;7.90;99.90
6375;DHT22;35400;45.472;-122.822;2023-03-24T00:16:11;7.80;99.90
6375;DHT22;35400;45.472;-122.822;2023-03-24T00:18:39;7.70;99.90
6375;DHT22;35400;45.472;-122.822;2023-03-24T00:21:07;7.60;99.90
6375;DHT22;35400;45.472;-122.822;2023-03-24T00:23:36;7.50;99.90
6375;DHT22;35400;45.472;-122.822;2023-03-24T00:26:07;7.50;99.90
6375;DHT22;35400;45.472;-122.822;2023-03-24T00:28:35;7.50;99.90
6375;DHT22;35400;45.472;-122.822;2023-03-24T00:31:04;7.40;99.90
6375;DHT22;35400;45.472;-122.822;2023-03-24T00:33:32;7.40;99.90
6375;DHT22;35400;45.472;-122.822;2023-03-24T00:36:01;7.40;99.90
6375;DHT22;35400;45.472;-122.822;2023-03-24T00:38:28;7.40;99.90
6375;DHT22;35400;45.472;-122.822;2023-03-24T00:40:56;7.30;99.90
6375;DHT22;35400;45.472;-122.822;2023-03-24T00:43:24;7.30;99.90
6375;DHT22;35400;45.472;-122.822;2023-03-24T00:45:58;7.30;99.90
6375;DHT22;35400;45.472;-122.822;2023-03-24T00:48:28;7.20;99.90
6375;DHT22;35400;45.472;-122.822;2023-03-24T00:50:56;7.20;99.90
6375;DHT22;35400;45.472;-122.822;2023-03-24T00:53:23;7.20;99.90
6375;DHT22;35400;45.472;-122.822;2023-03-24T00:55:55;7.20;99.90
6375;DHT22;35400;45.472;-122.822;2023-03-24T00:58:22;7.20;99.90
6375;DHT22;35400;45.472;-122.822;2023-03-24T01:00:52;7.10;99.90
6375;DHT22;35400;45.472;-122.822;2023-03-24T01:03:20;7.10;99.90
6375;DHT22;35400;45.472;-122.822;2023-03-24T01:05:50;7.10;99.90
6375;DHT22;35400;45.472;-122.822;2023-03-24T01:08:19;7.10;99.90
6375;DHT22;35400;45.472;-122.822;2023-03-24T01:10:47;7.10;99.90
6375;DHT22;35400;45.472;-122.822;2023-03-24T01:13:26;7.10;99.90
6375;DHT22;35400;45.472;-122.822;2023-03-24T01:15:54;7.10;99.90
6375;DHT22;35400;45.472;-122.822;2023-03-24T01:18:21;7.00;99.90
6375;DHT22;35400;45.472;-122.822;2023-03-24T01:20:51;7.00;99.90
6375;DHT22;35400;45.472;-122.822;2023-03-24T01:23:22;6.90;99.90
6375;DHT22;35400;45.472;-122.822;2023-03-24T01:25:50;6.90;99.90
6375;DHT22;35400;45.472;-122.822;2023-03-24T01:28:22;6.80;99.90
6375;DHT22;35400;45.472;-122.822;2023-03-24T01:30:51;6.80;99.90
6375;DHT22;35400;45.472;-122.822;2023-03-24T01:33:19;6.70;99.90
6375;DHT22;35400;45.472;-122.822;2023-03-24T01:35:46;6.70;99.90
6375;DHT22;35400;45.472;-122.822;2023-03-24T01:38:14;6.60;99.90
6375;DHT22;35400;45.472;-122.822;2023-03-24T01:40:44;6.60;99.90
6375;DHT22;35400;45.472;-122.822;2023-03-24T01:43:23;6.60;99.90
6375;DHT22;35400;45.472;-122.822;2023-03-24T01:46:11;6.50;99.90
6375;DHT22;35400;45.472;-122.822;2023-03-24T01:54:51;6.40;99.90
6375;DHT22;35400;45.472;-122.822;2023-03-24T01:57:05;6.30;99.90
6375;DHT22;35400;45.472;-122.822;2023-03-24T01:59:41;6.30;99.90
6375;DHT22;35400;45.472;-122.822;2023-03-24T02:02:27;6.20;99.90
6375;DHT22;35400;45.472;-122.822;2023-03-24T02:05:03;6.10;99.90
6375;DHT22;35400;45.472;-122.822;2023-03-24T02:10:13;6.00;99.90
6375;DHT22;35400;45.472;-122.822;2023-03-24T02:12:42;5.90;99.90
6375;DHT22;35400;45.472;-122.822;2023-03-24T02:15:11;5.90;99.90
6375;DHT22;35400;45.472;-122.822;2023-03-24T02:26:15;5.70;99.90
6375;DHT22;35400;45.472;-122.822;2023-03-24T02:49:40;5.30;99.90
6375;DHT22;35400;45.472;-122.822;2023-03-24T02:52:48;5.30;99.90
6375;DHT22;35400;45.472;-122.822;2023-03-24T02:55:32;5.20;99.90
6375;DHT22;35400;45.472;-122.822;2023-03-24T02:58:13;5.20;99.90
6375;DHT22;35400;45.472;-122.822;2023-03-24T03:00:59;5.20;99.90
6375;DHT22;35400;45.472;-122.822;2023-03-24T03:04:16;5.20;99.90
6375;DHT22;35400;45.472;-122.822;2023-03-24T03:06:48;5.10;99.90
6375;DHT22;35400;45.472;-122.822;2023-03-24T03:09:20;5.10;99.90
6375;DHT22;35400;45.472;-122.822;2023-03-24T03:11:50;5.10;99.90
6375;DHT22;35400;45.472;-122.822;2023-03-24T03:14:33;5.10;99.90
6375;DHT22;35400;45.472;-122.822;2023-03-24T03:17:17;5.00;99.90
6375;DHT22;35400;45.472;-122.822;2023-03-24T03:19:49;5.00;99.90
6375;DHT22;35400;45.472;-122.822;2023-03-24T03:22:27;4.90;99.90
6375;DHT22;35400;45.472;-122.822;2023-03-24T03:24:56;4.90;99.90
6375;DHT22;35400;45.472;-122.822;2023-03-24T03:27:30;4.90;99.90
6375;DHT22;35400;45.472;-122.822;2023-03-24T03:30:11;4.80;99.90
6375;DHT22;35400;45.472;-122.822;2023-03-24T03:32:43;4.80;99.90
6375;DHT22;35400;45.472;-122.822;2023-03-24T03:35:28;4.80;99.90
6375;DHT22;35400;45.472;-122.822;2023-03-24T03:40:51;4.80;99.90
6375;DHT22;35400;45.472;-122.822;2023-03-24T03:43:23;4.80;99.90
6375;DHT22;35400;45.472;-122.822;2023-03-24T03:45:51;4.80;99.90
6375;DHT22;35400;45.472;-122.822;2023-03-24T03:48:21;4.80;99.90
6375;DHT22;35400;45.472;-122.822;2023-03-24T03:50:55;4.70;99.90
6375;DHT22;35400;45.472;-122.822;2023-03-24T03:53:30;4.70;99.90
6375;DHT22;35400;45.472;-122.822;2023-03-24T03:55:59;4.70;99.90
6375;DHT22;35400;45.472;-122.822;2023-03-24T03:58:28;4.70;99.90
6375;DHT22;35400;45.472;-122.822;2023-03-24T04:00:56;4.70;99.90
6375;DHT22;35400;45.472;-122.822;2023-03-24T04:03:49;4.70;99.90
6375;DHT22;35400;45.472;-122.822;2023-03-24T04:06:43;4.70;99.90
6375;DHT22;35400;45.472;-122.822;2023-03-24T04:12:21;4.70;99.90
6375;DHT22;35400;45.472;-122.822;2023-03-24T04:18:42;4.60;99.90
6375;DHT22;35400;45.472;-122.822;2023-03-24T04:27:10;4.50;99.90
6375;DHT22;35400;45.472;-122.822;2023-03-24T04:29:53;4.50;99.90
6375;DHT22;35400;45.472;-122.822;2023-03-24T04:34:57;4.50;99.90
6375;DHT22;35400;45.472;-122.822;2023-03-24T04:37:47;4.50;99.90
6375;DHT22;35400;45.472;-122.822;2023-03-24T04:40:21;4.50;99.90
6375;DHT22;35400;45.472;-122.822;2023-03-24T04:42:53;4.50;99.90
6375;DHT22;35400;45.472;-122.822;2023-03-24T04:45:27;4.50;99.90
6375;DHT22;35400;45.472;-122.822;2023-03-24T04:48:24;4.50;99.90
6375;DHT22;35400;45.472;-122.822;2023-03-24T04:51:16;4.50;99.90
6375;DHT22;35400;45.472;-122.822;2023-03-24T04:54:06;4.60;99.90
6375;DHT22;35400;45.472;-122.822;2023-03-24T04:56:50;4.60;99.90
6375;DHT22;35400;45.472;-122.822;2023-03-24T04:59:23;4.60;99.90
6375;DHT22;35400;45.472;-122.822;2023-03-24T05:01:51;4.60;99.90
6375;DHT22;35400;45.472;-122.822;2023-03-24T05:04:38;4.60;99.90
6375;DHT22;35400;45.472;-122.822;2023-03-24T05:07:23;4.60;99.90
6375;DHT22;35400;45.472;-122.822;2023-03-24T05:09:55;4.60;99.90
6375;DHT22;35400;45.472;-122.822;2023-03-24T05:12:23;4.60;99.90
6375;DHT22;35400;45.472;-122.822;2023-03-24T05:15:10;4.70;99.90
6375;DHT22;35400;45.472;-122.822;2023-03-24T05:17:38;4.60;99.90
6375;DHT22;35400;45.472;-122.822;2023-03-24T05:20:06;4.60;99.90
6375;DHT22;35400;45.472;-122.822;2023-03-24T05:22:38;4.70;99.90
6375;DHT22;35400;45.472;-122.822;2023-03-24T05:25:06;4.70;99.90
6375;DHT22;35400;45.472;-122.822;2023-03-24T05:27:33;4.70;99.90
6375;DHT22;35400;45.472;-122.822;2023-03-24T05:30:13;4.70;99.90
6375;DHT22;35400;45.472;-122.822;2023-03-24T05:32:42;4.70;99.90
6375;DHT22;35400;45.472;-122.822;2023-03-24T05:35:08;4.70;99.90
6375;DHT22;35400;45.472;-122.822;2023-03-24T05:37:35;4.60;99.90
6375;DHT22;35400;45.472;-122.822;2023-03-24T05:40:03;4.60;99.90
6375;DHT22;35400;45.472;-122.822;2023-03-24T05:43:02;4.60;99.90
6375;DHT22;35400;45.472;-122.822;2023-03-24T05:45:33;4.60;99.90
6375;DHT22;35400;45.472;-122.822;2023-03-24T05:48:03;4.60;99.90
6375;DHT22;35400;45.472;-122.822;2023-03-24T05:50:48;4.60;99.90
6375;DHT22;35400;45.472;-122.822;2023-03-24T05:53:15;4.60;99.90
6375;DHT22;35400;45.472;-122.822;2023-03-24T05:56:02;4.60;99.90
6375;DHT22;35400;45.472;-122.822;2023-03-24T05:59:09;4.60;99.90
6375;DHT22;35400;45.472;-122.822;2023-03-24T06:01:53;4.60;99.90
6375;DHT22;35400;45.472;-122.822;2023-03-24T06:04:29;4.60;99.90
6375;DHT22;35400;45.472;-122.822;2023-03-24T06:07:01;4.60;99.90
6375;DHT22;35400;45.472;-122.822;2023-03-24T06:09:31;4.50;99.90
6375;DHT22;35400;45.472;-122.822;2023-03-24T06:12:02;4.50;99.90
6375;DHT22;35400;45.472;-122.822;2023-03-24T06:14:31;4.50;99.90
6375;DHT22;35400;45.472;-122.822;2023-03-24T06:17:07;4.60;99.90
6375;DHT22;35400;45.472;-122.822;2023-03-24T06:19:34;4.50;99.90
6375;DHT22;35400;45.472;-122.822;2023-03-24T06:22:17;4.50;99.90
6375;DHT22;35400;45.472;-122.822;2023-03-24T06:24:45;4.50;99.90
6375;DHT22;35400;45.472;-122.822;2023-03-24T06:27:13;4.50;99.90
6375;DHT22;35400;45.472;-122.822;2023-03-24T06:29:41;4.50;99.90
6375;DHT22;35400;45.472;-122.822;2023-03-24T06:32:08;4.50;99.90
6375;DHT22;35400;45.472;-122.822;2023-03-24T06:34:40;4.40;99.90
6375;DHT22;35400;45.472;-122.822;2023-03-24T06:37:33;4.50;99.90
6375;DHT22;35400;45.472;-122.822;2023-03-24T06:40:03;4.40;99.90
6375;DHT22;35400;45.472;-122.822;2023-03-24T06:42:41;4.40;99.90
6375;DHT22;35400;45.472;-122.822;2023-03-24T06:45:09;4.40;99.90
6375;DHT22;35400;45.472;-122.822;2023-03-24T06:47:36;4.40;99.90
6375;DHT22;35400;45.472;-122.822;2023-03-24T06:50:04;4.40;99.90
6375;DHT22;35400;45.472;-122.822;2023-03-24T06:52:33;4.40;99.90
6375;DHT22;35400;45.472;-122.822;2023-03-24T06:55:02;4.40;99.90
6375;DHT22;35400;45.472;-122.822;2023-03-24T06:57:29;4.40;99.90
6375;DHT22;35400;45.472;-122.822;2023-03-24T07:00:19;4.40;99.90
6375;DHT22;35400;45.472;-122.822;2023-03-24T07:02:59;4.40;99.90
6375;DHT22;35400;45.472;-122.822;2023-03-24T07:05:28;4.40;99.90
6375;DHT22;35400;45.472;-122.822;2023-03-24T07:07:55;4.40;99.90
6375;DHT22;35400;45.472;-122.822;2023-03-24T07:10:49;4.40;99.90
6375;DHT22;35400;45.472;-122.822;2023-03-24T07:13:16;4.40;99.90
6375;DHT22;35400;45.472;-122.822;2023-03-24T07:15:43;4.40;99.90
6375;DHT22;35400;45.472;-122.822;2023-03-24T07:18:11;4.40;99.90
6375;DHT22;35400;45.472;-122.822;2023-03-24T07:20:44;4.40;99.90
6375;DHT22;35400;45.472;-122.822;2023-03-24T07:23:20;4.40;99.90
6375;DHT22;35400;45.472;-122.822;2023-03-24T07:26:03;4.40;99.90
6375;DHT22;35400;45.472;-122.822;2023-03-24T07:28:46;4.40;99.90
6375;DHT22;35400;45.472;-122.822;2023-03-24T07:31:21;4.40;99.90
6375;DHT22;35400;45.472;-122.822;2023-03-24T07:33:56;4.40;99.90
6375;DHT22;35400;45.472;-122.822;2023-03-24T07:36:24;4.40;99.90
6375;DHT22;35400;45.472;-122.822;2023-03-24T07:38:50;4.40;99.90
6375;DHT22;35400;45.472;-122.822;2023-03-24T07:41:24;4.40;99.90
6375;DHT22;35400;45.472;-122.822;2023-03-24T07:43:57;4.40;99.90
6375;DHT22;35400;45.472;-122.822;2023-03-24T07:46:25;4.30;99.90
6375;DHT22;35400;45.472;-122.822;2023-03-24T07:48:52;4.30;99.90
6375;DHT22;35400;45.472;-122.822;2023-03-24T07:51:19;4.30;99.90
6375;DHT22;35400;45.472;-122.822;2023-03-24T07:53:53;4.30;99.90
6375;DHT22;35400;45.472;-122.822;2023-03-24T07:56:28;4.30;99.90
6375;DHT22;35400;45.472;-122.822;2023-03-24T07:58:57;4.20;99.90
6375;DHT22;35400;45.472;-122.822;2023-03-24T08:01:30;4.20;99.90
6375;DHT22;35400;45.472;-122.822;2023-03-24T08:04:01;4.20;99.90
6375;DHT22;35400;45.472;-122.822;2023-03-24T08:06:47;4.10;99.90
6375;DHT22;35400;45.472;-122.822;2023-03-24T08:09:14;4.10;99.90
6375;DHT22;35400;45.472;-122.822;2023-03-24T08:11:41;4.10;99.90
6375;DHT22;35400;45.472;-122.822;2023-03-24T08:14:08;4.00;99.90
6375;DHT22;35400;45.472;-122.822;2023-03-24T08:16:35;4.00;99.90
6375;DHT22;35400;45.472;-122.822;2023-03-24T08:19:04;3.90;99.90
6375;DHT22;35400;45.472;-122.822;2023-03-24T08:21:31;3.90;99.90
6375;DHT22;35400;45.472;-122.822;2023-03-24T08:23:59;3.90;99.90
6375;DHT22;35400;45.472;-122.822;2023-03-24T08:26:26;3.80;99.90
6375;DHT22;35400;45.472;-122.822;2023-03-24T08:28:53;3.80;99.90
6375;DHT22;35400;45.472;-122.822;2023-03-24T08:31:20;3.80;99.90
6375;DHT22;35400;45.472;-122.822;2023-03-24T08:33:47;3.80;99.90
6375;DHT22;35400;45.472;-122.822;2023-03-24T08:36:14;3.70;99.90
6375;DHT22;35400;45.472;-122.822;2023-03-24T08:38:41;3.70;99.90
6375;DHT22;35400;45.472;-122.822;2023-03-24T08:41:08;3.60;99.90
6375;DHT22;35400;45.472;-122.822;2023-03-24T08:43:35;3.60;99.90
6375;DHT22;35400;45.472;-122.822;2023-03-24T08:46:05;3.60;99.90
6375;DHT22;35400;45.472;-122.822;2023-03-24T08:48:32;3.60;99.90
6375;DHT22;35400;45.472;-122.822;2023-03-24T08:51:09;3.60;99.90
6375;DHT22;35400;45.472;-122.822;2023-03-24T08:53:37;3.50;99.90
6375;DHT22;35400;45.472;-122.822;2023-03-24T08:56:04;3.50;99.90
6375;DHT22;35400;45.472;-122.822;2023-03-24T08:58:31;3.50;99.90
6375;DHT22;35400;45.472;-122.822;2023-03-24T09:00:58;3.50;99.90
6375;DHT22;35400;45.472;-122.822;2023-03-24T09:03:25;3.50;99.90
6375;DHT22;35400;45.472;-122.822;2023-03-24T09:05:55;3.40;99.90
6375;DHT22;35400;45.472;-122.822;2023-03-24T09:08:26;3.40;99.90
6375;DHT22;35400;45.472;-122.822;2023-03-24T09:10:53;3.40;99.90
6375;DHT22;35400;45.472;-122.822;2023-03-24T09:13:20;3.40;99.90
6375;DHT22;35400;45.472;-122.822;2023-03-24T09:15:49;3.40;99.90
6375;DHT22;35400;45.472;-122.822;2023-03-24T09:18:18;3.40;99.90
6375;DHT22;35400;45.472;-122.822;2023-03-24T09:20:45;3.30;99.90
6375;DHT22;35400;45.472;-122.822;2023-03-24T09:23:14;3.30;99.90
6375;DHT22;35400;45.472;-122.822;2023-03-24T09:25:41;3.30;99.90
6375;DHT22;35400;45.472;-122.822;2023-03-24T09:28:08;3.30;99.90
6375;DHT22;35400;45.472;-122.822;2023-03-24T09:30:36;3.30;99.90
6375;DHT22;35400;45.472;-122.822;2023-03-24T09:33:03;3.30;99.90
6375;DHT22;35400;45.472;-122.822;2023-03-24T09:35:30;3.30;99.90
6375;DHT22;35400;45.472;-122.822;2023-03-24T09:37:57;3.20;99.90
6375;DHT22;35400;45.472;-122.822;2023-03-24T09:45:28;3.10;99.90
6375;DHT22;35400;45.472;-122.822;2023-03-24T09:48:01;3.10;99.90
6375;DHT22;35400;45.472;-122.822;2023-03-24T09:50:35;3.10;99.90
6375;DHT22;35400;45.472;-122.822;2023-03-24T09:53:09;3.00;99.90
6375;DHT22;35400;45.472;-122.822;2023-03-24T09:55:42;3.00;99.90
6375;DHT22;35400;45.472;-122.822;2023-03-24T09:58:10;3.00;99.90
6375;DHT22;35400;45.472;-122.822;2023-03-24T10:00:39;3.00;99.90
6375;DHT22;35400;45.472;-122.822;2023-03-24T10:03:24;3.00;99.90
6375;DHT22;35400;45.472;-122.822;2023-03-24T10:08:50;2.90;99.90
6375;DHT22;35400;45.472;-122.822;2023-03-24T10:11:45;2.90;99.90
6375;DHT22;35400;45.472;-122.822;2023-03-24T10:22:59;3.00;99.90
6375;DHT22;35400;45.472;-122.822;2023-03-24T10:28:23;3.00;99.90
6375;DHT22;35400;45.472;-122.822;2023-03-24T10:30:55;3.00;99.90
6375;DHT22;35400;45.472;-122.822;2023-03-24T10:33:22;3.00;99.90
6375;DHT22;35400;45.472;-122.822;2023-03-24T10:35:57;3.00;99.90
6375;DHT22;35400;45.472;-122.822;2023-03-24T10:38:27;3.00;99.90
6375;DHT22;35400;45.472;-122.822;2023-03-24T10:40:54;3.00;99.90
6375;DHT22;35400;45.472;-122.822;2023-03-24T10:43:23;3.00;99.90
6375;DHT22;35400;45.472;-122.822;2023-03-24T10:45:52;3.00;99.90
6375;DHT22;35400;45.472;-122.822;2023-03-24T10:48:41;3.00;99.90
6375;DHT22;35400;45.472;-122.822;2023-03-24T10:51:17;3.00;99.90
6375;DHT22;35400;45.472;-122.822;2023-03-24T10:53:46;3.00;99.90
6375;DHT22;35400;45.472;-122.822;2023-03-24T10:59:27;3.00;99.90
6375;DHT22;35400;45.472;-122.822;2023-03-24T11:02:18;2.90;99.90
6375;DHT22;35400;45.472;-122.822;2023-03-24T11:04:56;2.90;99.90
6375;DHT22;35400;45.472;-122.822;2023-03-24T11:07:30;2.90;99.90
6375;DHT22;35400;45.472;-122.822;2023-03-24T11:15:25;2.80;99.90
6375;DHT22;35400;45.472;-122.822;2023-03-24T11:17:58;2.70;99.90
6375;DHT22;35400;45.472;-122.822;2023-03-24T11:23:01;2.60;99.90
6375;DHT22;35400;45.472;-122.822;2023-03-24T11:25:38;2.50;99.90
6375;DHT22;35400;45.472;-122.822;2023-03-24T11:28:17;2.50;99.90
6375;DHT22;35400;45.472;-122.822;2023-03-24T11:30:48;2.50;99.90
6375;DHT22;35400;45.472;-122.822;2023-03-24T11:33:43;2.40;99.90
6375;DHT22;35400;45.472;-122.822;2023-03-24T11:39:08;2.30;99.90
6375;DHT22;35400;45.472;-122.822;2023-03-24T11:41:38;2.30;99.90
6375;DHT22;35400;45.472;-122.822;2023-03-24T11:47:32;2.30;99.90
6375;DHT22;35400;45.472;-122.822;2023-03-24T11:52:51;2.30;99.90
6375;DHT22;35400;45.472;-122.822;2023-03-24T11:58:46;2.30;99.90
6375;DHT22;35400;45.472;-122.822;2023-03-24T12:04:15;2.30;99.90
6375;DHT22;35400;45.472;-122.822;2023-03-24T12:20:38;2.30;99.90
6375;DHT22;35400;45.472;-122.822;2023-03-24T12:34:04;2.40;99.90
6375;DHT22;35400;45.472;-122.822;2023-03-24T12:39:10;2.40;99.90
6375;DHT22;35400;45.472;-122.822;2023-03-24T12:42:15;2.40;99.90
6375;DHT22;35400;45.472;-122.822;2023-03-24T12:47:29;2.50;99.90
6375;DHT22;35400;45.472;-122.822;2023-03-24T12:50:06;2.50;99.90
6375;DHT22;35400;45.472;-122.822;2023-03-24T12:56:03;2.60;99.90
6375;DHT22;35400;45.472;-122.822;2023-03-24T12:58:42;2.60;99.90
6375;DHT22;35400;45.472;-122.822;2023-03-24T13:04:05;2.60;99.90
6375;DHT22;35400;45.472;-122.822;2023-03-24T13:06:38;2.60;99.90
6375;DHT22;35400;45.472;-122.822;2023-03-24T13:10:04;2.60;99.90
6375;DHT22;35400;45.472;-122.822;2023-03-24T13:12:18;2.70;99.90
6375;DHT22;35400;45.472;-122.822;2023-03-24T13:15:04;2.70;99.90
6375;DHT22;35400;45.472;-122.822;2023-03-24T13:17:40;2.70;99.90
6375;DHT22;35400;45.472;-122.822;2023-03-24T13:20:13;2.70;99.90
6375;DHT22;35400;45.472;-122.822;2023-03-24T13:22:41;2.70;99.90
6375;DHT22;35400;45.472;-122.822;2023-03-24T13:25:43;2.70;99.90
6375;DHT22;35400;45.472;-122.822;2023-03-24T13:28:09;2.80;99.90
6375;DHT22;35400;45.472;-122.822;2023-03-24T13:30:39;2.80;99.90
6375;DHT22;35400;45.472;-122.822;2023-03-24T13:33:26;2.80;99.90
6375;DHT22;35400;45.472;-122.822;2023-03-24T13:38:45;2.80;99.90
6375;DHT22;35400;45.472;-122.822;2023-03-24T13:41:20;2.80;99.90
6375;DHT22;35400;45.472;-122.822;2023-03-24T13:44:22;2.70;99.90
6375;DHT22;35400;45.472;-122.822;2023-03-24T13:47:13;2.70;99.90
6375;DHT22;35400;45.472;-122.822;2023-03-24T13:49:52;2.70;99.90
6375;DHT22;35400;45.472;-122.822;2023-03-24T13:52:25;2.70;99.90
6375;DHT22;35400;45.472;-122.822;2023-03-24T13:54:57;2.70;99.90
6375;DHT22;35400;45.472;-122.822;2023-03-24T13:57:26;2.70;99.90
6375;DHT22;35400;45.472;-122.822;2023-03-24T14:00:22;2.60;99.90
6375;DHT22;35400;45.472;-122.822;2023-03-24T14:05:40;2.60;99.90
6375;DHT22;35400;45.472;-122.822;2023-03-24T14:10:45;2.60;99.90
6375;DHT22;35400;45.472;-122.822;2023-03-24T14:21:06;2.60;99.90
6375;DHT22;35400;45.472;-122.822;2023-03-24T14:23:47;2.60;99.90
6375;DHT22;35400;45.472;-122.822;2023-03-24T14:28:48;2.60;99.90
6375;DHT22;35400;45.472;-122.822;2023-03-24T14:39:20;2.60;99.90
6375;DHT22;35400;45.472;-122.822;2023-03-24T14:41:49;2.60;99.90
6375;DHT22;35400;45.472;-122.822;2023-03-24T14:47:19;2.70;99.90
6375;DHT22;35400;45.472;-122.822;2023-03-24T14:49:49;2.70;99.90
6375;DHT22;35400;45.472;-122.822;2023-03-24T14:55:14;2.70;99.90
6375;DHT22;35400;45.472;-122.822;2023-03-24T14:57:56;2.70;99.90
6375;DHT22;35400;45.472;-122.822;2023-03-24T15:00:47;2.70;99.90
6375;DHT22;35400;45.472;-122.822;2023-03-24T15:03:29;2.70;99.90
6375;DHT22;35400;45.472;-122.822;2023-03-24T15:06:16;2.70;99.90
6375;DHT22;35400;45.472;-122.822;2023-03-24T15:08:55;2.70;99.90
6375;DHT22;35400;45.472;-122.822;2023-03-24T15:11:30;2.80;99.90
6375;DHT22;35400;45.472;-122.822;2023-03-24T15:13:59;2.80;99.90
6375;DHT22;35400;45.472;-122.822;2023-03-24T15:16:32;2.70;99.90
6375;DHT22;35400;45.472;-122.822;2023-03-24T15:21:39;2.70;99.90
6375;DHT22;35400;45.472;-122.822;2023-03-24T15:24:24;2.70;99.90
6375;DHT22;35400;45.472;-122.822;2023-03-24T15:26:54;2.70;99.90
6375;DHT22;35400;45.472;-122.822;2023-03-24T15:29:34;2.70;99.90
6375;DHT22;35400;45.472;-122.822;2023-03-24T15:32:02;2.70;99.90
6375;DHT22;35400;45.472;-122.822;2023-03-24T15:34:38;2.70;99.90
6375;DHT22;35400;45.472;-122.822;2023-03-24T15:37:31;2.60;99.90
6375;DHT22;35400;45.472;-122.822;2023-03-24T15:39:59;2.60;99.90
6375;DHT22;35400;45.472;-122.822;2023-03-24T15:42:26;2.60;99.90
6375;DHT22;35400;45.472;-122.822;2023-03-24T15:44:54;2.60;99.90
6375;DHT22;35400;45.472;-122.822;2023-03-24T15:49:59;2.70;99.90
6375;DHT22;35400;45.472;-122.822;2023-03-24T15:52:34;2.70;99.90
6375;DHT22;35400;45.472;-122.822;2023-03-24T15:57:39;2.80;99.90
6375;DHT22;35400;45.472;-122.822;2023-03-24T16:00:17;2.80;99.90
6375;DHT22;35400;45.472;-122.822;2023-03-24T16:02:47;2.80;99.90
6375;DHT22;35400;45.472;-122.822;2023-03-24T16:05:28;2.80;99.90
6375;DHT22;35400;45.472;-122.822;2023-03-24T16:07:59;2.90;99.90
6375;DHT22;35400;45.472;-122.822;2023-03-24T16:13:13;2.90;99.90
6375;DHT22;35400;45.472;-122.822;2023-03-24T16:15:43;2.90;99.90
6375;DHT22;35400;45.472;-122.822;2023-03-24T16:18:19;2.90;99.90
6375;DHT22;35400;45.472;-122.822;2023-03-24T16:20:47;2.90;99.90
6375;DHT22;35400;45.472;-122.822;2023-03-24T16:23:17;2.90;99.90
6375;DHT22;35400;45.472;-122.822;2023-03-24T16:25:44;2.90;99.90
6375;DHT22;35400;45.472;-122.822;2023-03-24T16:28:12;2.90;99.90
6375;DHT22;35400;45.472;-122.822;2023-03-24T16:30:42;2.90;99.90
6375;DHT22;35400;45.472;-122.822;2023-03-24T16:33:09;2.80;99.90
6375;DHT22;35400;45.472;-122.822;2023-03-24T16:35:38;2.80;99.90
6375;DHT22;35400;45.472;-122.822;2023-03-24T16:38:05;2.90;99.90
6375;DHT22;35400;45.472;-122.822;2023-03-24T16:40:45;2.80;99.90
6375;DHT22;35400;45.472;-122.822;2023-03-24T16:43:12;2.90;99.90
6375;DHT22;35400;45.472;-122.822;2023-03-24T16:45:41;2.90;99.90
6375;DHT22;35400;45.472;-122.822;2023-03-24T16:48:11;2.90;99.90
6375;DHT22;35400;45.472;-122.822;2023-03-24T16:50:43;2.90;99.90
6375;DHT22;35400;45.472;-122.822;2023-03-24T16:53:10;3.00;99.90
6375;DHT22;35400;45.472;-122.822;2023-03-24T16:55:38;3.10;99.90
6375;DHT22;35400;45.472;-122.822;2023-03-24T16:58:14;3.10;99.90
6375;DHT22;35400;45.472;-122.822;2023-03-24T17:00:42;3.20;99.90
6375;DHT22;35400;45.472;-122.822;2023-03-24T17:03:11;3.30;99.90
6375;DHT22;35400;45.472;-122.822;2023-03-24T17:05:48;3.50;99.90
6375;DHT22;35400;45.472;-122.822;2023-03-24T17:08:17;3.60;99.90
6375;DHT22;35400;45.472;-122.822;2023-03-24T17:10:51;3.60;99.90
6375;DHT22;35400;45.472;-122.822;2023-03-24T17:13:21;3.70;99.90
6375;DHT22;35400;45.472;-122.822;2023-03-24T17:15:49;3.80;99.90
6375;DHT22;35400;45.472;-122.822;2023-03-24T17:18:16;3.90;99.90
6375;DHT22;35400;45.472;-122.822;2023-03-24T17:20:43;4.00;99.90
6375;DHT22;35400;45.472;-122.822;2023-03-24T17:23:13;4.00;99.90
6375;DHT22;35400;45.472;-122.822;2023-03-24T17:25:42;4.00;99.90
6375;DHT22;35400;45.472;-122.822;2023-03-24T17:28:13;4.10;99.90
6375;DHT22;35400;45.472;-122.822;2023-03-24T17:30:41;4.10;99.90
6375;DHT22;35400;45.472;-122.822;2023-03-24T17:33:12;4.20;99.90
6375;DHT22;35400;45.472;-122.822;2023-03-24T17:35:42;4.20;99.90
6375;DHT22;35400;45.472;-122.822;2023-03-24T17:38:10;4.20;99.90
6375;DHT22;35400;45.472;-122.822;2023-03-24T17:40:39;4.30;99.90
6375;DHT22;35400;45.472;-122.822;2023-03-24T17:43:06;4.40;99.90
6375;DHT22;35400;45.472;-122.822;2023-03-24T17:45:33;4.60;99.90
6375;DHT22;35400;45.472;-122.822;2023-03-24T17:48:00;4.70;99.90
6375;DHT22;35400;45.472;-122.822;2023-03-24T17:50:27;4.90;99.90
6375;DHT22;35400;45.472;-122.822;2023-03-24T17:52:56;5.20;99.90
6375;DHT22;35400;45.472;-122.822;2023-03-24T17:55:22;5.40;99.90
6375;DHT22;35400;45.472;-122.822;2023-03-24T17:57:49;5.70;99.90
6375;DHT22;35400;45.472;-122.822;2023-03-24T18:00:16;5.90;99.90
6375;DHT22;35400;45.472;-122.822;2023-03-24T18:02:43;6.10;99.90
6375;DHT22;35400;45.472;-122.822;2023-03-24T18:05:11;6.30;99.90
6375;DHT22;35400;45.472;-122.822;2023-03-24T18:07:39;6.30;99.90
6375;DHT22;35400;45.472;-122.822;2023-03-24T18:10:07;6.40;99.90
6375;DHT22;35400;45.472;-122.822;2023-03-24T18:12:34;6.40;99.90
6375;DHT22;35400;45.472;-122.822;2023-03-24T18:15:03;6.40;99.90
6375;DHT22;35400;45.472;-122.822;2023-03-24T18:17:32;6.50;99.90
6375;DHT22;35400;45.472;-122.822;2023-03-24T18:20:00;6.60;99.90
6375;DHT22;35400;45.472;-122.822;2023-03-24T18:22:36;6.70;99.90
6375;DHT22;35400;45.472;-122.822;2023-03-24T18:25:08;6.70;99.90
6375;DHT22;35400;45.472;-122.822;2023-03-24T18:27:36;6.70;99.90
6375;DHT22;35400;45.472;-122.822;2023-03-24T18:30:05;6.70;99.90
6375;DHT22;35400;45.472;-122.822;2023-03-24T18:32:33;6.60;99.90
6375;DHT22;35400;45.472;-122.822;2023-03-24T18:35:01;6.60;99.90
6375;DHT22;35400;45.472;-122.822;2023-03-24T18:37:30;6.50;99.90
6375;DHT22;35400;45.472;-122.822;2023-03-24T18:39:57;6.50;99.90
6375;DHT22;35400;45.472;-122.822;2023-03-24T18:42:26;6.40;99.90
6375;DHT22;35400;45.472;-122.822;2023-03-24T18:44:54;6.40;99.90
6375;DHT22;35400;45.472;-122.822;2023-03-24T18:47:21;6.40;99.90
6375;DHT22;35400;45.472;-122.822;2023-03-24T18:49:50;6.50;99.90
6375;DHT22;35400;45.472;-122.822;2023-03-24T18:52:16;6.50;99.90